createdAt,value
2018-03-23T00:01:49.838Z,109.82
2018-03-23T00:04:21.638Z,103.05
2018-03-23T00:06:50.618Z,123.07
2018-03-23T00:09:19.558Z,124.75
2018-03-23T00:11:48.576Z,127.93
2018-03-23T00:14:17.534Z,125.12
2018-03-23T00:16:46.443Z,94.32
2018-03-23T00:19:15.375Z,109.55
2018-03-23T00:21:44.295Z,96.93
2018-03-23T00:24:13.263Z,93.72
2018-03-23T00:26:42.223Z,89.25
2018-03-23T00:29:11.144Z,85.95
2018-03-23T00:31:40.337Z,85.55
2018-03-23T00:34:09.274Z,84.35
2018-03-23T00:36:38.183Z,87.53
2018-03-23T00:39:07.119Z,86.90
2018-03-23T00:41:36.105Z,90.65
2018-03-23T00:44:05.047Z,100.43
2018-03-23T00:46:33.967Z,103.38
2018-03-23T00:49:02.910Z,97.47
2018-03-23T00:51:31.833Z,96.00
2018-03-23T00:54:00.752Z,96.15
2018-03-23T00:56:29.718Z,95.12
2018-03-23T00:58:58.631Z,95.72
2018-03-23T01:01:27.589Z,95.03
2018-03-23T01:03:56.525Z,96.63
2018-03-23T01:06:25.452Z,96.85
2018-03-23T01:08:54.400Z,106.43
2018-03-23T01:11:23.324Z,102.10
2018-03-23T01:13:52.266Z,104.40
2018-03-23T01:16:21.180Z,113.45
2018-03-23T01:18:50.095Z,104.32
2018-03-23T01:21:19.093Z,98.20
2018-03-23T01:23:48.003Z,96.55
2018-03-23T01:26:16.934Z,100.05
2018-03-23T01:28:45.860Z,109.50
2018-03-23T01:31:14.792Z,89.72
2018-03-23T01:33:43.712Z,106.75
2018-03-23T01:36:12.678Z,88.35
2018-03-23T01:38:41.696Z,88.75
2018-03-23T01:41:10.615Z,86.97
2018-03-23T01:43:39.581Z,85.07
2018-03-23T01:46:08.520Z,88.80
2018-03-23T01:48:37.499Z,89.40
2018-03-23T01:51:06.410Z,86.22
2018-03-23T01:53:41.202Z,87.65
2018-03-23T01:56:10.148Z,85.80
2018-03-23T01:58:39.101Z,81.65
2018-03-23T02:01:08.022Z,85.75
2018-03-23T02:03:36.959Z,84.10
2018-03-23T02:06:05.925Z,87.43
2018-03-23T02:08:34.827Z,86.65
2018-03-23T02:11:03.757Z,91.45
2018-03-23T02:13:32.692Z,93.95
2018-03-23T02:16:01.617Z,85.10
2018-03-23T02:18:30.564Z,102.35
2018-03-23T02:20:59.455Z,91.55
2018-03-23T02:23:28.361Z,87.15
2018-03-23T02:25:57.308Z,101.75
2018-03-23T02:28:26.249Z,105.32
2018-03-23T02:30:55.166Z,99.20
2018-03-23T02:33:24.140Z,101.05
2018-03-23T02:35:53.031Z,89.03
2018-03-23T02:38:21.948Z,90.97
2018-03-23T02:40:50.872Z,99.28
2018-03-23T02:43:19.785Z,107.30
2018-03-23T02:45:48.734Z,107.43
2018-03-23T02:48:17.662Z,114.18
2018-03-23T02:50:46.645Z,117.72
2018-03-23T02:53:15.558Z,103.25
2018-03-23T02:55:44.500Z,90.12
2018-03-23T02:58:13.409Z,94.78
2018-03-23T03:00:42.319Z,89.47
2018-03-23T03:03:11.258Z,88.43
2018-03-23T03:05:40.170Z,86.25
2018-03-23T03:08:09.096Z,89.93
2018-03-23T03:10:38.039Z,88.15
2018-03-23T03:13:06.957Z,88.12
2018-03-23T03:15:35.892Z,86.80
2018-03-23T03:18:04.841Z,88.90
2018-03-23T03:20:33.752Z,84.18
2018-03-23T03:23:02.652Z,77.87
2018-03-23T03:25:31.606Z,86.87
2018-03-23T03:28:00.508Z,86.45
2018-03-23T03:30:29.462Z,79.55
2018-03-23T03:32:58.366Z,79.00
2018-03-23T03:35:27.284Z,79.80
2018-03-23T03:37:56.220Z,75.28
2018-03-23T03:40:25.174Z,76.12
2018-03-23T03:42:54.084Z,75.25
2018-03-23T03:45:23.019Z,80.95
2018-03-23T03:47:51.982Z,78.32
2018-03-23T03:50:20.885Z,77.93
2018-03-23T03:52:49.827Z,78.47
2018-03-23T03:55:18.736Z,81.78
2018-03-23T03:57:47.669Z,81.37
2018-03-23T04:00:16.616Z,85.03
2018-03-23T04:02:45.510Z,79.10
2018-03-23T04:05:14.419Z,82.18
2018-03-23T04:07:43.348Z,77.53
2018-03-23T04:10:12.260Z,75.72
2018-03-23T04:12:41.201Z,78.43
2018-03-23T04:15:10.160Z,78.55
2018-03-23T04:17:39.074Z,82.12
2018-03-23T04:20:07.997Z,74.10
2018-03-23T04:22:36.922Z,71.40
2018-03-23T04:25:05.893Z,72.40
2018-03-23T04:27:34.852Z,72.20
2018-03-23T04:30:03.779Z,71.07
2018-03-23T04:32:32.760Z,66.43
2018-03-23T04:35:01.663Z,78.43
2018-03-23T04:37:30.575Z,87.75
2018-03-23T04:39:59.500Z,95.07
2018-03-23T04:42:28.429Z,71.25
2018-03-23T04:44:57.356Z,86.55
2018-03-23T04:47:26.265Z,88.15
2018-03-23T04:49:55.201Z,77.75
2018-03-23T04:52:24.135Z,98.85
2018-03-23T04:54:53.055Z,87.53
2018-03-23T04:57:22.028Z,78.95
2018-03-23T04:59:50.942Z,78.40
2018-03-23T05:02:19.870Z,79.82
2018-03-23T05:04:48.797Z,71.00
2018-03-23T05:07:17.715Z,65.68
2018-03-23T05:09:46.663Z,67.55
2018-03-23T05:12:15.586Z,70.30
2018-03-23T05:14:44.536Z,71.30
2018-03-23T05:17:13.452Z,70.95
2018-03-23T05:19:42.370Z,76.20
2018-03-23T05:22:11.337Z,76.90
2018-03-23T05:24:40.288Z,76.63
2018-03-23T05:27:09.216Z,76.40
2018-03-23T05:29:38.188Z,82.37
2018-03-23T05:32:07.095Z,89.30
2018-03-23T05:34:36.025Z,86.37
2018-03-23T05:37:04.956Z,95.70
2018-03-23T05:39:33.880Z,99.60
2018-03-23T05:42:02.905Z,104.87
2018-03-23T05:44:32.000Z,97.55
2018-03-23T05:47:00.964Z,102.10
2018-03-23T05:49:29.894Z,95.28
2018-03-23T05:51:58.856Z,94.45
2018-03-23T05:54:27.841Z,92.03
2018-03-23T05:56:56.764Z,96.13
2018-03-23T05:59:25.723Z,89.80
2018-03-23T06:01:54.717Z,92.40
2018-03-23T06:04:23.627Z,92.15
2018-03-23T06:06:52.532Z,98.50
2018-03-23T06:09:21.502Z,90.55
2018-03-23T06:11:50.440Z,88.93
2018-03-23T06:14:19.394Z,91.73
2018-03-23T06:16:48.347Z,88.67
2018-03-23T06:19:17.294Z,88.03
2018-03-23T06:21:46.247Z,84.30
2018-03-23T06:24:15.181Z,85.30
2018-03-23T06:26:44.093Z,77.50
2018-03-23T06:29:13.030Z,77.67
2018-03-23T06:31:41.948Z,74.37
2018-03-23T06:34:10.904Z,69.97
2018-03-23T06:36:39.891Z,70.27
2018-03-23T06:39:08.837Z,67.37
2018-03-23T06:41:37.806Z,61.17
2018-03-23T06:44:06.866Z,66.07
2018-03-23T06:46:35.812Z,68.73
2018-03-23T06:49:04.776Z,68.73
2018-03-23T06:51:33.721Z,68.37
2018-03-23T06:54:02.636Z,66.67
2018-03-23T06:56:31.588Z,64.23
2018-03-23T06:59:00.548Z,65.73
2018-03-23T07:01:29.538Z,64.47
2018-03-23T07:03:58.467Z,60.27
2018-03-23T07:06:27.394Z,62.07
2018-03-23T07:08:56.368Z,59.20
2018-03-23T07:11:25.377Z,58.63
2018-03-23T07:13:54.328Z,59.17
2018-03-23T07:16:23.362Z,60.30
2018-03-23T07:18:52.288Z,58.80
2018-03-23T07:21:21.242Z,60.17
2018-03-23T07:23:50.152Z,60.70
2018-03-23T07:26:19.119Z,56.20
2018-03-23T07:28:48.047Z,54.53
2018-03-23T07:31:16.991Z,56.27
2018-03-23T07:33:45.937Z,55.40
2018-03-23T07:36:14.851Z,58.37
2018-03-23T07:38:43.775Z,57.00
2018-03-23T07:41:12.696Z,59.23
2018-03-23T07:43:41.631Z,57.77
2018-03-23T07:46:10.588Z,60.67
2018-03-23T07:48:39.494Z,69.13
2018-03-23T07:51:08.485Z,68.20
2018-03-23T07:53:37.404Z,68.80
2018-03-23T07:56:06.365Z,69.90
2018-03-23T07:58:35.450Z,71.90
2018-03-23T08:01:04.377Z,81.07
2018-03-23T08:03:33.291Z,77.17
2018-03-23T08:06:02.256Z,70.97
2018-03-23T08:08:31.187Z,65.77
2018-03-23T08:11:00.103Z,65.13
2018-03-23T08:13:29.061Z,57.90
2018-03-23T08:15:58.014Z,60.80
2018-03-23T08:18:26.941Z,62.07
2018-03-23T08:20:55.881Z,63.40
2018-03-23T08:23:24.801Z,65.20
2018-03-23T08:25:53.739Z,63.03
2018-03-23T08:28:22.679Z,61.93
2018-03-23T08:30:51.590Z,57.37
2018-03-23T08:33:20.675Z,59.30
2018-03-23T08:35:49.587Z,55.47
2018-03-23T08:38:18.599Z,54.23
2018-03-23T08:40:47.513Z,51.27
2018-03-23T08:43:16.467Z,54.03
2018-03-23T08:45:45.426Z,51.83
2018-03-23T08:48:14.336Z,51.63
2018-03-23T08:50:43.254Z,48.27
2018-03-23T08:53:12.208Z,51.63
2018-03-23T08:55:41.232Z,49.47
2018-03-23T08:58:10.320Z,52.53
2018-03-23T09:00:39.241Z,48.73
2018-03-23T09:03:08.179Z,42.90
2018-03-23T09:05:37.090Z,39.83
2018-03-23T09:08:06.011Z,39.00
2018-03-23T09:10:34.923Z,38.67
2018-03-23T09:13:03.850Z,40.50
2018-03-23T09:15:32.752Z,41.87
2018-03-23T09:18:01.699Z,42.10
2018-03-23T09:20:30.612Z,43.03
2018-03-23T09:22:59.494Z,37.23
2018-03-23T09:25:28.429Z,39.77
2018-03-23T09:27:57.334Z,40.60
2018-03-23T09:30:26.258Z,41.47
2018-03-23T09:32:55.153Z,45.33
2018-03-23T09:35:24.106Z,43.53
2018-03-23T09:37:53.012Z,45.70
2018-03-23T09:40:21.938Z,45.60
2018-03-23T09:42:50.878Z,48.97
2018-03-23T09:45:19.827Z,48.27
2018-03-23T09:47:48.792Z,46.23
2018-03-23T09:50:17.804Z,46.73
2018-03-23T09:52:47.275Z,49.47
2018-03-23T09:55:16.253Z,47.33
2018-03-23T09:57:45.171Z,48.73
2018-03-23T10:00:14.169Z,45.67
2018-03-23T10:02:43.113Z,47.23
2018-03-23T10:05:12.030Z,45.77
2018-03-23T10:07:40.990Z,43.57
2018-03-23T10:10:09.936Z,44.23
2018-03-23T10:12:38.904Z,43.00
2018-03-23T10:15:07.835Z,38.20
2018-03-23T10:17:36.750Z,40.17
2018-03-23T10:20:05.702Z,40.60
2018-03-23T10:22:34.674Z,41.07
2018-03-23T10:25:03.648Z,43.63
2018-03-23T10:27:32.627Z,44.00
2018-03-23T10:30:01.560Z,41.77
2018-03-23T10:32:30.563Z,43.60
2018-03-23T10:34:59.484Z,42.00
2018-03-23T10:37:28.450Z,42.53
2018-03-23T10:39:57.351Z,42.03
2018-03-23T10:42:26.275Z,31.67
2018-03-23T10:44:55.208Z,27.47
2018-03-23T10:47:24.136Z,26.37
2018-03-23T10:50:09.181Z,26.20
2018-03-23T10:52:38.387Z,32.73
2018-03-23T10:55:07.278Z,35.67
2018-03-23T10:57:36.178Z,33.00
2018-03-23T11:00:05.123Z,30.73
2018-03-23T11:02:43.961Z,31.37
2018-03-23T11:05:12.912Z,37.20
2018-03-23T11:07:41.849Z,31.30
2018-03-23T11:10:10.778Z,29.20
2018-03-23T11:12:39.729Z,28.53
2018-03-23T11:15:08.639Z,27.50
2018-03-23T11:17:37.611Z,30.57
2018-03-23T11:20:06.516Z,26.10
2018-03-23T11:22:35.466Z,30.57
2018-03-23T11:25:04.477Z,27.03
2018-03-23T11:27:33.389Z,25.60
2018-03-23T11:30:02.359Z,30.73
2018-03-23T11:32:31.283Z,28.43
2018-03-23T11:35:00.200Z,32.67
2018-03-23T11:37:29.151Z,31.67
2018-03-23T11:39:58.082Z,30.10
2018-03-23T11:42:27.025Z,33.70
2018-03-23T11:44:55.958Z,29.80
2018-03-23T11:47:24.954Z,27.37
2018-03-23T11:49:53.870Z,28.80
2018-03-23T11:52:22.798Z,30.47
2018-03-23T11:54:51.792Z,29.33
2018-03-23T11:57:20.709Z,32.57
2018-03-23T11:59:49.647Z,29.83
2018-03-23T12:02:18.609Z,25.97
2018-03-23T12:04:47.525Z,28.13
2018-03-23T12:07:16.522Z,28.47
2018-03-23T12:09:45.444Z,27.43
2018-03-23T12:12:14.424Z,26.80
2018-03-23T12:14:43.370Z,22.90
2018-03-23T12:17:12.432Z,22.63
2018-03-23T12:19:41.383Z,22.73
2018-03-23T12:22:10.287Z,23.17
2018-03-23T12:24:39.395Z,24.23
2018-03-23T12:27:08.319Z,28.70
2018-03-23T12:29:37.253Z,30.63
2018-03-23T12:32:06.219Z,26.10
2018-03-23T12:34:35.129Z,28.57
2018-03-23T12:37:04.034Z,28.33
2018-03-23T12:39:32.984Z,29.30
2018-03-23T12:42:01.919Z,30.23
2018-03-23T12:44:30.882Z,30.10
2018-03-23T12:46:59.797Z,28.50
2018-03-23T12:49:28.726Z,29.10
2018-03-23T12:51:57.732Z,31.10
2018-03-23T12:54:26.668Z,28.13
2018-03-23T12:56:55.595Z,28.83
2018-03-23T12:59:24.692Z,29.80
2018-03-23T13:01:53.658Z,28.20
2018-03-23T13:04:22.605Z,27.10
2018-03-23T13:06:51.543Z,27.10
2018-03-23T13:09:20.482Z,25.67
2018-03-23T13:11:49.425Z,26.03
2018-03-23T13:14:18.345Z,27.23
2018-03-23T13:16:47.284Z,28.20
2018-03-23T13:19:16.234Z,27.40
2018-03-23T13:21:45.231Z,27.50
2018-03-23T13:24:14.202Z,27.13
2018-03-23T13:26:43.173Z,28.63
2018-03-23T13:29:12.122Z,27.27
2018-03-23T13:31:41.205Z,30.40
2018-03-23T13:34:10.139Z,36.97
2018-03-23T13:36:39.149Z,34.47
2018-03-23T13:39:08.260Z,32.17
2018-03-23T13:41:37.212Z,34.70
2018-03-23T13:44:06.135Z,35.90
2018-03-23T13:46:35.046Z,33.00
2018-03-23T13:49:04.008Z,33.27
2018-03-23T13:51:33.004Z,29.27
2018-03-23T13:54:02.040Z,29.63
2018-03-23T13:56:30.967Z,32.97
2018-03-23T13:59:05.453Z,32.33
2018-03-23T14:01:40.354Z,33.50
2018-03-23T14:04:09.280Z,33.67
2018-03-23T14:06:38.206Z,34.47
2018-03-23T14:09:07.157Z,34.40
2018-03-23T14:11:36.586Z,34.73
2018-03-23T14:14:05.551Z,32.53
2018-03-23T14:16:34.635Z,34.47
2018-03-23T14:19:03.563Z,32.37
2018-03-23T14:21:32.527Z,32.17
2018-03-23T14:24:01.439Z,31.73
2018-03-23T14:26:30.367Z,37.33
2018-03-23T14:28:59.351Z,37.17
2018-03-23T14:31:28.305Z,34.37
2018-03-23T14:33:57.268Z,36.40
2018-03-23T14:36:26.237Z,34.40
2018-03-23T14:38:55.152Z,36.23
2018-03-23T14:41:24.134Z,37.17
2018-03-23T14:43:53.139Z,40.67
2018-03-23T14:46:22.133Z,42.80
2018-03-23T14:48:51.102Z,38.63
2018-03-23T14:51:20.041Z,39.37
2018-03-23T14:53:49.050Z,41.07
2018-03-23T14:56:17.963Z,43.73
2018-03-23T14:58:52.537Z,44.00
2018-03-23T15:01:21.498Z,43.10
2018-03-23T15:03:50.417Z,46.03
2018-03-23T15:06:19.419Z,50.53
2018-03-23T15:08:48.324Z,42.77
2018-03-23T15:11:17.227Z,39.73
2018-03-23T15:13:46.235Z,40.23
2018-03-23T15:16:15.171Z,38.23
2018-03-23T15:18:44.108Z,39.43
2018-03-23T15:21:13.054Z,42.33
2018-03-23T15:23:41.951Z,41.17
2018-03-23T15:26:10.852Z,39.70
2018-03-23T15:28:39.787Z,36.63
2018-03-23T15:31:08.717Z,38.50
2018-03-23T15:33:38.536Z,41.90
2018-03-23T15:36:07.440Z,37.33
2018-03-23T15:38:36.414Z,36.13
2018-03-23T15:41:05.344Z,33.93
2018-03-23T15:43:34.301Z,34.70
2018-03-23T15:46:03.232Z,37.20
2018-03-23T15:48:32.190Z,35.40
2018-03-23T15:51:01.155Z,40.93
2018-03-23T15:53:30.027Z,39.37
2018-03-23T15:55:58.959Z,35.50
2018-03-23T15:58:27.898Z,33.53
2018-03-23T16:00:56.820Z,33.27
2018-03-23T16:03:25.737Z,36.20
2018-03-23T16:05:54.701Z,39.17
2018-03-23T16:08:23.598Z,36.70
2018-03-23T16:10:52.490Z,38.53
2018-03-23T16:13:21.588Z,45.27
2018-03-23T16:15:50.548Z,47.47
2018-03-23T16:18:19.528Z,90.13
2018-03-23T16:20:48.559Z,52.43
2018-03-23T16:23:17.512Z,50.40
2018-03-23T16:25:46.431Z,51.97
2018-03-23T16:28:15.340Z,52.27
2018-03-23T16:30:44.300Z,53.53
2018-03-23T16:33:13.212Z,55.07
2018-03-23T16:35:42.136Z,51.90
2018-03-23T16:38:11.096Z,49.60
2018-03-23T16:40:40.037Z,50.90
2018-03-23T16:43:08.927Z,56.10
2018-03-23T16:45:38.008Z,47.73
2018-03-23T16:48:06.964Z,47.77
2018-03-23T16:50:35.879Z,47.67
2018-03-23T16:53:04.837Z,50.03
2018-03-23T16:55:33.811Z,50.90
2018-03-23T16:58:02.744Z,45.63
2018-03-23T17:00:31.664Z,47.60
2018-03-23T17:03:00.595Z,51.10
2018-03-23T17:05:29.535Z,52.73
2018-03-23T17:07:58.508Z,52.27
2018-03-23T17:10:27.421Z,54.30
2018-03-23T17:12:56.333Z,54.87
2018-03-23T17:15:25.284Z,59.13
2018-03-23T17:17:54.218Z,56.97
2018-03-23T17:20:23.159Z,71.17
2018-03-23T17:22:52.124Z,75.33
2018-03-23T17:25:21.050Z,78.70
2018-03-23T17:27:49.985Z,71.07
2018-03-23T17:30:18.908Z,66.70
2018-03-23T17:32:47.823Z,69.50
2018-03-23T17:35:17.090Z,70.47
2018-03-23T17:37:46.023Z,61.33
2018-03-23T17:40:14.956Z,56.97
2018-03-23T17:42:43.968Z,58.70
2018-03-23T17:45:12.880Z,61.03
2018-03-23T17:47:41.825Z,56.97
2018-03-23T17:50:10.776Z,55.57
2018-03-23T17:52:39.691Z,60.17
2018-03-23T17:55:08.667Z,67.27
2018-03-23T17:57:37.564Z,64.77
2018-03-23T18:00:06.516Z,69.73
2018-03-23T18:02:35.429Z,80.20
2018-03-23T18:05:04.396Z,83.40
2018-03-23T18:07:33.333Z,82.77
2018-03-23T18:10:02.294Z,85.87
2018-03-23T18:12:31.229Z,74.43
2018-03-23T18:15:00.184Z,70.87
2018-03-23T18:17:29.116Z,67.00
2018-03-23T18:19:58.054Z,70.73
2018-03-23T18:22:26.976Z,70.70
2018-03-23T18:24:55.870Z,71.80
2018-03-23T18:27:24.823Z,71.90
2018-03-23T18:29:53.758Z,83.23
2018-03-23T18:32:22.686Z,74.73
2018-03-23T18:34:51.607Z,81.30
2018-03-23T18:37:20.581Z,81.30
2018-03-23T18:39:49.489Z,85.17
2018-03-23T18:42:18.412Z,100.70
2018-03-23T18:44:47.356Z,94.27
2018-03-23T18:47:16.335Z,85.73
2018-03-23T18:49:45.235Z,83.70
2018-03-23T18:52:14.212Z,78.60
2018-03-23T18:54:43.118Z,83.60
2018-03-23T18:57:12.108Z,78.93
2018-03-23T18:59:41.080Z,82.27
2018-03-23T19:02:10.059Z,95.40
2018-03-23T19:04:38.973Z,104.37
2018-03-23T19:07:07.879Z,104.50
2018-03-23T19:09:36.851Z,88.03
2018-03-23T19:12:05.774Z,81.47
2018-03-23T19:14:34.738Z,82.07
2018-03-23T19:17:03.642Z,82.20
2018-03-23T19:19:32.556Z,87.07
2018-03-23T19:22:01.527Z,89.67
2018-03-23T19:24:30.427Z,86.47
2018-03-23T19:26:59.356Z,76.07
2018-03-23T19:29:28.297Z,76.80
2018-03-23T19:31:57.262Z,71.97
2018-03-23T19:34:26.181Z,78.27
2018-03-23T19:36:55.101Z,81.93
2018-03-23T19:39:24.170Z,81.67
2018-03-23T19:41:53.138Z,83.87
2018-03-23T19:44:22.040Z,86.33
2018-03-23T19:46:50.985Z,82.40
2018-03-23T19:49:19.915Z,75.57
2018-03-23T19:51:48.860Z,69.53
2018-03-23T19:54:17.959Z,69.73
2018-03-23T19:56:46.868Z,73.70
2018-03-23T19:59:15.814Z,67.90
2018-03-23T20:01:44.824Z,71.87
2018-03-23T20:04:13.742Z,78.80
2018-03-23T20:06:42.683Z,77.80
2018-03-23T20:09:11.631Z,73.63
2018-03-23T20:11:40.559Z,70.23
2018-03-23T20:14:10.337Z,72.00
2018-03-23T20:16:39.284Z,69.43
2018-03-23T20:19:08.192Z,68.80
2018-03-23T20:21:37.163Z,71.63
2018-03-23T20:24:11.608Z,70.17
2018-03-23T20:26:40.543Z,68.00
2018-03-23T20:29:09.476Z,70.13
2018-03-23T20:31:44.073Z,73.77
2018-03-23T20:34:13.017Z,77.97
2018-03-23T20:36:41.944Z,70.90
2018-03-23T20:39:10.897Z,68.10
2018-03-23T20:41:39.825Z,66.97
2018-03-23T20:44:08.735Z,66.03
2018-03-23T20:46:37.690Z,68.50
2018-03-23T20:49:06.602Z,73.27
2018-03-23T20:51:35.511Z,77.13
2018-03-23T20:54:04.456Z,86.27
2018-03-23T20:56:33.372Z,77.37
2018-03-23T20:59:02.351Z,77.90
2018-03-23T21:01:31.277Z,80.73
2018-03-23T21:04:00.183Z,85.50
2018-03-23T21:06:29.177Z,85.40
2018-03-23T21:08:58.096Z,81.57
2018-03-23T21:11:27.064Z,91.13
2018-03-23T21:13:56.068Z,89.47
2018-03-23T21:16:25.009Z,80.30
2018-03-23T21:18:54.016Z,79.10
2018-03-23T21:21:23.020Z,78.13
2018-03-23T21:23:51.945Z,78.57
2018-03-23T21:26:20.849Z,79.03
2018-03-23T21:28:49.782Z,80.27
2018-03-23T21:31:18.698Z,78.63
2018-03-23T21:33:47.648Z,77.93
2018-03-23T21:36:16.584Z,80.37
2018-03-23T21:38:45.598Z,78.27
2018-03-23T21:41:14.543Z,78.20
2018-03-23T21:43:43.473Z,77.77
2018-03-23T21:46:12.446Z,79.07
2018-03-23T21:48:41.380Z,80.67
2018-03-23T21:51:10.324Z,78.43
2018-03-23T21:53:39.244Z,83.83
2018-03-23T21:56:08.204Z,80.93
2018-03-23T21:58:37.128Z,81.80
2018-03-23T22:01:06.056Z,78.77
2018-03-23T22:03:35.035Z,81.10
2018-03-23T22:06:04.019Z,78.40
2018-03-23T22:08:32.934Z,80.77
2018-03-23T22:11:01.885Z,82.03
2018-03-23T22:13:30.856Z,77.87
2018-03-23T22:15:59.787Z,81.43
2018-03-23T22:18:28.715Z,78.97
2018-03-23T22:20:57.712Z,82.37
2018-03-23T22:23:26.644Z,79.00
2018-03-23T22:25:55.632Z,81.43
2018-03-23T22:28:24.647Z,80.27
2018-03-23T22:30:53.591Z,83.33
2018-03-23T22:33:22.600Z,84.50
2018-03-23T22:35:51.583Z,87.93
2018-03-23T22:38:20.537Z,84.50
2018-03-23T22:40:49.443Z,84.37
2018-03-23T22:43:18.379Z,82.00
2018-03-23T22:45:47.356Z,84.50
2018-03-23T22:48:16.268Z,85.93
2018-03-23T22:50:45.194Z,84.73
2018-03-23T22:53:14.152Z,81.83
2018-03-23T22:55:43.059Z,82.37
2018-03-23T22:58:11.977Z,81.57
2018-03-23T23:00:40.893Z,83.77
2018-03-23T23:03:09.829Z,80.87
2018-03-23T23:05:38.747Z,85.97
2018-03-23T23:08:07.667Z,85.33
2018-03-23T23:10:36.578Z,85.20
2018-03-23T23:13:05.488Z,84.30
2018-03-23T23:15:34.440Z,89.73
2018-03-23T23:18:03.392Z,90.33
2018-03-23T23:20:32.299Z,101.10
2018-03-23T23:23:01.249Z,100.83
2018-03-23T23:25:30.178Z,100.53
2018-03-23T23:27:59.208Z,98.93
2018-03-23T23:30:28.118Z,99.50
2018-03-23T23:32:57.028Z,96.03
2018-03-23T23:35:25.980Z,101.53
2018-03-23T23:37:54.915Z,100.10
2018-03-23T23:40:23.836Z,96.37
2018-03-23T23:42:52.771Z,92.20
2018-03-23T23:45:21.686Z,90.97
2018-03-23T23:47:50.674Z,96.00
2018-03-23T23:50:19.585Z,90.40
2018-03-23T23:52:48.500Z,88.17
2018-03-23T23:55:17.444Z,93.40
2018-03-23T23:57:46.389Z,92.80
